createdAt,value
2019-04-07T00:01:19.708Z,4.40
2019-04-07T00:03:48.341Z,4.20
2019-04-07T00:06:16.792Z,3.97
2019-04-07T00:08:45.195Z,4.13
2019-04-07T00:11:13.921Z,4.10
2019-04-07T00:13:42.384Z,4.13
2019-04-07T00:16:10.779Z,4.70
2019-04-07T00:18:39.187Z,4.17
2019-04-07T00:21:07.600Z,4.50
2019-04-07T00:23:36.001Z,4.60
2019-04-07T00:26:04.410Z,4.67
2019-04-07T00:28:32.815Z,4.33
2019-04-07T00:31:01.932Z,4.70
2019-04-07T00:33:31.006Z,4.83
2019-04-07T00:35:59.485Z,4.57
2019-04-07T00:38:28.359Z,4.67
2019-04-07T00:40:56.834Z,4.80
2019-04-07T00:43:25.247Z,5.70
2019-04-07T00:45:53.654Z,5.10
2019-04-07T00:48:22.148Z,4.80
2019-04-07T00:50:51.236Z,4.87
2019-04-07T00:53:20.043Z,4.93
2019-04-07T00:55:48.522Z,4.87
2019-04-07T00:58:16.979Z,4.80
2019-04-07T01:00:45.395Z,5.10
2019-04-07T01:03:13.800Z,4.73
2019-04-07T01:05:43.446Z,4.67
2019-04-07T01:08:11.985Z,4.80
2019-04-07T01:10:40.544Z,5.03
2019-04-07T01:13:09.261Z,4.80
2019-04-07T01:15:38.334Z,5.57
2019-04-07T01:18:06.942Z,4.93
2019-04-07T01:20:35.337Z,5.00
2019-04-07T01:23:03.924Z,5.17
2019-04-07T01:25:32.436Z,5.27
2019-04-07T01:28:00.848Z,5.63
2019-04-07T01:30:29.259Z,5.07
2019-04-07T01:32:57.664Z,5.40
2019-04-07T01:35:26.746Z,4.70
2019-04-07T01:37:55.239Z,5.10
2019-04-07T01:40:23.638Z,4.73
2019-04-07T01:42:53.711Z,4.73
2019-04-07T01:45:35.536Z,4.90
2019-04-07T01:48:17.231Z,5.00
2019-04-07T01:51:05.702Z,5.33
2019-04-07T01:53:44.665Z,5.10
2019-04-07T01:56:18.269Z,5.13
2019-04-07T01:59:04.854Z,4.93
2019-04-07T02:01:38.479Z,5.63
2019-04-07T02:04:09.326Z,5.63
2019-04-07T02:06:55.547Z,5.37
2019-04-07T02:09:37.940Z,5.10
2019-04-07T02:12:14.620Z,5.90
2019-04-07T02:14:54.189Z,5.80
2019-04-07T02:17:30.647Z,5.53
2019-04-07T02:20:09.415Z,5.50
2019-04-07T02:22:39.479Z,5.33
2019-04-07T02:25:13.013Z,5.50
2019-04-07T02:27:43.137Z,5.20
2019-04-07T02:30:28.961Z,5.63
2019-04-07T02:33:08.450Z,5.40
2019-04-07T02:35:38.994Z,5.63
2019-04-07T02:38:24.900Z,5.23
2019-04-07T02:40:55.745Z,5.63
2019-04-07T02:43:40.704Z,5.43
2019-04-07T02:46:17.016Z,5.67
2019-04-07T02:48:50.988Z,5.70
2019-04-07T02:51:24.342Z,5.50
2019-04-07T02:54:09.369Z,5.63
2019-04-07T02:56:42.425Z,4.90
2019-04-07T02:59:13.039Z,5.33
2019-04-07T03:01:46.770Z,5.03
2019-04-07T03:04:29.080Z,5.17
2019-04-07T03:07:02.760Z,5.00
2019-04-07T03:09:51.676Z,5.17
2019-04-07T03:12:21.851Z,4.80
2019-04-07T03:15:07.084Z,5.37
2019-04-07T03:17:43.585Z,5.33
2019-04-07T03:20:16.860Z,5.33
2019-04-07T03:22:58.811Z,5.40
2019-04-07T03:25:28.969Z,5.33
2019-04-07T03:28:14.292Z,5.13
2019-04-07T03:30:54.708Z,5.63
2019-04-07T03:33:40.181Z,5.93
2019-04-07T03:36:29.566Z,5.43
2019-04-07T03:38:58.986Z,5.50
2019-04-07T03:41:29.240Z,5.60
2019-04-07T03:44:08.232Z,5.57
2019-04-07T03:46:41.283Z,5.33
2019-04-07T03:49:11.499Z,5.80
2019-04-07T03:51:56.133Z,4.77
2019-04-07T03:54:26.375Z,5.53
2019-04-07T03:57:13.159Z,5.20
2019-04-07T03:59:51.980Z,5.50
2019-04-07T04:02:31.499Z,5.43
2019-04-07T04:05:01.625Z,5.67
2019-04-07T04:07:44.185Z,5.30
2019-04-07T04:10:14.450Z,5.40
2019-04-07T04:12:44.504Z,5.60
2019-04-07T04:15:15.112Z,5.23
2019-04-07T04:17:43.640Z,5.13
2019-04-07T04:20:12.924Z,5.70
2019-04-07T04:22:41.396Z,5.47
2019-04-07T04:25:10.670Z,5.30
2019-04-07T04:27:39.230Z,5.40
2019-04-07T04:30:10.355Z,5.30
2019-04-07T04:32:39.639Z,4.90
2019-04-07T04:35:08.733Z,5.37
2019-04-07T04:37:44.301Z,5.17
2019-04-07T04:40:07.826Z,5.30
2019-04-07T04:42:36.238Z,5.33
2019-04-07T04:45:08.488Z,5.00
2019-04-07T04:47:37.663Z,5.10
2019-04-07T04:50:08.052Z,5.83
2019-04-07T04:52:36.689Z,5.40
2019-04-07T04:55:05.603Z,5.63
2019-04-07T04:57:34.308Z,5.33
2019-04-07T05:00:05.495Z,5.30
2019-04-07T05:02:34.686Z,5.23
2019-04-07T05:05:04.170Z,5.20
2019-04-07T05:07:32.566Z,5.33
2019-04-07T05:10:01.253Z,5.40
2019-04-07T05:12:29.751Z,5.40
2019-04-07T05:14:58.857Z,5.57
2019-04-07T05:17:27.508Z,5.30
2019-04-07T05:19:56.595Z,5.40
2019-04-07T05:22:25.686Z,5.77
2019-04-07T05:24:54.134Z,5.33
2019-04-07T05:27:22.864Z,5.47
2019-04-07T05:29:52.023Z,5.37
2019-04-07T05:32:21.180Z,5.17
2019-04-07T05:34:50.457Z,5.80
2019-04-07T05:37:19.133Z,5.90
2019-04-07T05:39:48.354Z,6.40
2019-04-07T05:42:17.396Z,6.03
2019-04-07T05:44:45.993Z,6.20
2019-04-07T05:47:15.293Z,5.83
2019-04-07T05:49:44.529Z,6.10
2019-04-07T05:52:13.739Z,5.90
2019-04-07T05:54:42.859Z,6.10
2019-04-07T05:57:11.889Z,6.23
2019-04-07T05:59:42.248Z,6.47
2019-04-07T06:02:11.090Z,5.70
2019-04-07T06:04:39.583Z,6.20
2019-04-07T06:07:08.094Z,5.90
2019-04-07T06:09:37.177Z,5.90
2019-04-07T06:12:09.072Z,6.07
2019-04-07T06:14:35.796Z,6.00
2019-04-07T06:17:04.898Z,6.30
2019-04-07T06:19:37.505Z,6.50
2019-04-07T06:22:03.529Z,6.50
2019-04-07T06:24:33.386Z,6.50
2019-04-07T06:27:02.090Z,6.87
2019-04-07T06:29:30.559Z,7.00
2019-04-07T06:32:02.316Z,5.97
2019-04-07T06:34:29.145Z,6.40
2019-04-07T06:36:58.185Z,6.00
2019-04-07T06:39:26.735Z,6.67
2019-04-07T06:41:55.200Z,6.80
2019-04-07T06:44:24.297Z,6.97
2019-04-07T06:46:58.584Z,6.80
2019-04-07T06:49:29.618Z,6.77
2019-04-07T06:52:02.029Z,6.80
2019-04-07T06:54:47.026Z,6.83
2019-04-07T06:57:26.601Z,7.13
2019-04-07T07:00:02.679Z,7.30
2019-04-07T07:02:48.844Z,7.30
2019-04-07T07:05:25.116Z,7.43
2019-04-07T07:08:04.295Z,7.10
2019-04-07T07:10:37.752Z,6.77
2019-04-07T07:13:29.574Z,6.63
2019-04-07T07:15:59.024Z,6.97
2019-04-07T07:18:29.493Z,6.93
2019-04-07T07:21:02.528Z,7.10
2019-04-07T07:23:32.064Z,6.63
2019-04-07T07:26:02.905Z,6.87
2019-04-07T07:28:30.699Z,7.17
2019-04-07T07:30:59.808Z,6.83
2019-04-07T07:33:29.161Z,7.17
2019-04-07T07:35:58.299Z,7.00
2019-04-07T07:38:30.049Z,6.67
2019-04-07T07:41:00.773Z,6.67
2019-04-07T07:43:29.302Z,6.60
2019-04-07T07:45:58.949Z,7.00
2019-04-07T07:48:28.381Z,6.60
2019-04-07T07:50:56.861Z,6.77
2019-04-07T07:53:28.153Z,6.70
2019-04-07T07:55:55.504Z,6.73
2019-04-07T07:58:28.044Z,6.87
2019-04-07T08:00:54.457Z,6.43
2019-04-07T08:03:23.067Z,6.23
2019-04-07T08:05:52.222Z,7.13
2019-04-07T08:08:21.199Z,7.10
2019-04-07T08:10:50.722Z,6.63
2019-04-07T08:13:20.130Z,6.60
2019-04-07T08:15:49.313Z,6.40
2019-04-07T08:18:19.857Z,6.87
2019-04-07T08:20:47.923Z,6.67
2019-04-07T08:23:16.343Z,6.60
2019-04-07T08:25:44.744Z,7.10
2019-04-07T08:28:13.565Z,6.97
2019-04-07T08:30:45.646Z,6.73
2019-04-07T08:33:12.639Z,7.13
2019-04-07T08:35:41.047Z,6.83
2019-04-07T08:38:09.850Z,6.90
2019-04-07T08:40:39.185Z,6.63
2019-04-07T08:43:08.274Z,6.37
2019-04-07T08:45:37.116Z,6.50
2019-04-07T08:48:06.366Z,7.17
2019-04-07T08:50:35.080Z,7.33
2019-04-07T08:53:04.269Z,7.17
2019-04-07T08:55:33.462Z,6.57
2019-04-07T08:58:04.277Z,7.13
2019-04-07T09:00:33.764Z,7.00
2019-04-07T09:03:07.822Z,6.83
2019-04-07T09:05:32.312Z,7.67
2019-04-07T09:08:03.548Z,6.83
2019-04-07T09:10:33.613Z,6.97
2019-04-07T09:13:04.777Z,8.10
2019-04-07T09:15:34.927Z,6.70
2019-04-07T09:18:05.480Z,7.73
2019-04-07T09:20:40.900Z,8.03
2019-04-07T09:23:13.461Z,8.83
2019-04-07T09:26:00.125Z,8.40
2019-04-07T09:28:31.495Z,8.93
2019-04-07T09:31:04.262Z,9.33
2019-04-07T09:33:42.249Z,10.10
2019-04-07T09:36:18.048Z,9.83
2019-04-07T09:39:04.203Z,9.17
2019-04-07T09:41:37.777Z,10.17
2019-04-07T09:44:45.266Z,11.23
2019-04-07T09:47:46.867Z,11.63
2019-04-07T09:50:47.059Z,11.07
2019-04-07T09:53:29.655Z,12.30
2019-04-07T09:56:15.068Z,12.20
2019-04-07T10:05:04.204Z,14.77
2019-04-07T10:17:00.180Z,16.50
2019-04-07T10:25:58.434Z,17.73
2019-04-07T10:28:58.579Z,19.43
2019-04-07T10:34:48.488Z,19.57
2019-04-07T10:40:28.590Z,21.33
2019-04-07T10:43:13.807Z,22.10
2019-04-07T10:46:13.692Z,23.40
2019-04-07T10:49:00.284Z,23.00
2019-04-07T10:51:59.816Z,22.83
2019-04-07T10:54:59.456Z,23.57
2019-04-07T11:03:57.593Z,22.63
2019-04-07T11:09:25.570Z,20.57
2019-04-07T11:12:08.841Z,22.73
2019-04-07T11:14:51.220Z,21.77
2019-04-07T11:17:32.494Z,24.70
2019-04-07T11:20:17.218Z,24.87
2019-04-07T11:22:57.704Z,24.67
2019-04-07T11:25:38.462Z,23.67
2019-04-07T11:28:20.984Z,23.63
2019-04-07T11:31:07.219Z,25.73
2019-04-07T11:33:49.089Z,25.00
2019-04-07T11:36:33.305Z,21.47
2019-04-07T11:42:13.028Z,21.10
2019-04-07T11:45:12.657Z,21.70
2019-04-07T11:48:15.618Z,23.80
2019-04-07T11:50:57.499Z,24.43
2019-04-07T11:53:39.407Z,25.77
2019-04-07T11:56:20.691Z,25.00
2019-04-07T11:59:01.182Z,24.43
2019-04-07T12:01:46.092Z,24.53
2019-04-07T12:07:23.752Z,26.07
2019-04-07T12:10:05.068Z,25.60
2019-04-07T12:12:47.335Z,24.60
2019-04-07T12:15:29.142Z,24.83
2019-04-07T12:18:16.837Z,26.00
2019-04-07T12:21:00.925Z,26.80
2019-04-07T12:23:44.396Z,25.67
2019-04-07T12:26:43.924Z,25.40
2019-04-07T12:29:24.497Z,24.40
2019-04-07T12:32:24.935Z,24.53
2019-04-07T12:35:07.543Z,24.33
2019-04-07T12:37:53.133Z,25.03
2019-04-07T12:40:35.428Z,26.53
2019-04-07T12:43:21.737Z,25.67
2019-04-07T12:46:25.149Z,24.53
2019-04-07T12:49:24.303Z,24.57
2019-04-07T12:52:32.517Z,23.70
2019-04-07T12:58:39.341Z,25.90
2019-04-07T13:04:38.248Z,22.83
2019-04-07T13:10:39.383Z,23.90
2019-04-07T13:16:27.848Z,23.87
2019-04-07T13:19:35.875Z,24.03
2019-04-07T13:22:45.478Z,19.10
2019-04-07T13:25:55.069Z,19.83
2019-04-07T13:29:01.784Z,18.53
2019-04-07T13:32:08.883Z,19.77
2019-04-07T13:35:09.076Z,16.63
2019-04-07T13:37:51.143Z,17.23
2019-04-07T13:43:26.553Z,15.47
2019-04-07T13:49:19.494Z,14.10
2019-04-07T13:52:05.294Z,12.53
2019-04-07T13:54:50.368Z,14.03
2019-04-07T14:01:00.901Z,13.20
2019-04-07T14:06:46.821Z,12.47
2019-04-07T14:09:35.325Z,12.03
2019-04-07T14:12:23.754Z,12.43
2019-04-07T14:15:16.881Z,11.93
2019-04-07T14:18:24.525Z,11.80
2019-04-07T14:21:14.791Z,11.37
2019-04-07T14:24:23.094Z,11.43
2019-04-07T14:27:30.993Z,11.70
2019-04-07T14:30:38.344Z,12.30
2019-04-07T14:33:45.421Z,12.03
2019-04-07T14:36:30.399Z,11.70
2019-04-07T14:42:03.950Z,12.03
2019-04-07T14:47:39.291Z,11.63
2019-04-07T14:50:22.070Z,11.63
2019-04-07T14:53:05.515Z,12.33
2019-04-07T14:56:08.826Z,11.27
2019-04-07T15:08:16.257Z,14.93
2019-04-07T15:14:02.841Z,15.47
2019-04-07T15:16:52.383Z,15.07
2019-04-07T15:20:17.509Z,16.33
2019-04-07T15:23:05.549Z,16.33
2019-04-07T15:25:54.766Z,17.07
2019-04-07T15:28:43.625Z,16.47
2019-04-07T15:31:33.042Z,15.57
2019-04-07T15:34:15.287Z,15.40
2019-04-07T15:36:56.804Z,15.60
2019-04-07T15:39:38.385Z,16.47
2019-04-07T15:42:33.254Z,14.90
2019-04-07T15:45:02.421Z,16.23
2019-04-07T15:47:43.077Z,15.63
2019-04-07T15:50:24.731Z,16.20
2019-04-07T15:53:06.117Z,16.43
2019-04-07T15:55:55.441Z,14.53
2019-04-07T15:58:29.727Z,15.43
2019-04-07T16:01:11.770Z,15.37
2019-04-07T16:03:54.654Z,15.40
2019-04-07T16:06:36.814Z,15.67
2019-04-07T16:09:31.431Z,16.00
2019-04-07T16:12:00.900Z,15.57
2019-04-07T16:14:46.477Z,15.13
2019-04-07T16:17:25.279Z,15.53
2019-04-07T16:20:06.695Z,15.27
2019-04-07T16:22:51.110Z,14.97
2019-04-07T16:25:30.480Z,14.10
2019-04-07T16:28:14.423Z,14.10
2019-04-07T16:33:37.180Z,13.47
2019-04-07T16:36:18.451Z,13.43
2019-04-07T16:39:01.924Z,14.10
2019-04-07T16:41:44.175Z,14.17
2019-04-07T16:44:24.495Z,13.97
2019-04-07T16:47:16.554Z,13.53
2019-04-07T16:52:32.904Z,13.07
2019-04-07T16:54:59.931Z,12.63
2019-04-07T16:57:48.238Z,14.00
2019-04-07T17:00:38.241Z,12.97
2019-04-07T17:03:27.453Z,13.47
2019-04-07T17:06:16.174Z,13.57
2019-04-07T17:09:26.494Z,13.03
2019-04-07T17:12:14.943Z,12.70
2019-04-07T17:15:05.723Z,12.77
2019-04-07T17:17:54.586Z,13.67
2019-04-07T17:20:42.862Z,13.07
2019-04-07T17:23:31.063Z,12.97
2019-04-07T17:26:21.388Z,13.43
2019-04-07T17:29:08.921Z,13.40
2019-04-07T17:32:01.274Z,13.13
2019-04-07T17:34:42.087Z,13.13
2019-04-07T17:37:25.948Z,13.03
2019-04-07T17:40:13.165Z,13.53
2019-04-07T17:42:40.729Z,13.70
2019-04-07T17:45:48.016Z,13.53
2019-04-07T17:48:57.354Z,13.93
2019-04-07T17:55:12.716Z,12.77
2019-04-07T17:58:20.121Z,13.33
2019-04-07T18:01:29.196Z,12.97
2019-04-07T18:04:36.386Z,13.07
2019-04-07T18:10:39.056Z,13.90
2019-04-07T18:13:49.911Z,13.90
2019-04-07T18:16:54.872Z,13.57
2019-04-07T18:19:43.124Z,13.97
2019-04-07T18:22:53.898Z,14.20
2019-04-07T18:25:58.860Z,14.13
2019-04-07T18:34:36.565Z,13.93
2019-04-07T18:37:44.294Z,14.20
2019-04-07T18:43:51.995Z,14.50
2019-04-07T18:46:55.132Z,14.30
2019-04-07T18:53:10.624Z,13.80
2019-04-07T18:56:19.959Z,14.43
2019-04-07T18:59:26.963Z,15.30
2019-04-07T19:02:34.370Z,13.63
2019-04-07T19:05:41.375Z,14.00
2019-04-07T19:11:42.928Z,14.50
2019-04-07T19:14:59.737Z,14.23
2019-04-07T19:18:01.814Z,14.73
2019-04-07T19:21:11.096Z,15.10
2019-04-07T19:24:16.437Z,14.00
2019-04-07T19:27:28.623Z,15.83
2019-04-07T19:30:32.284Z,16.17
2019-04-07T19:33:39.774Z,15.30
2019-04-07T19:36:24.942Z,16.07
2019-04-07T19:39:06.975Z,15.70
2019-04-07T19:42:14.459Z,16.63
2019-04-07T19:45:23.665Z,15.77
2019-04-07T19:48:30.828Z,15.33
2019-04-07T19:54:49.326Z,16.80
2019-04-07T20:01:03.661Z,24.33
2019-04-07T20:03:51.723Z,26.70
2019-04-07T20:09:54.637Z,19.10
2019-04-07T20:13:02.547Z,17.10
2019-04-07T20:16:12.953Z,15.57
2019-04-07T20:19:18.761Z,16.37
2019-04-07T20:22:26.246Z,16.03
2019-04-07T20:28:43.881Z,16.50
2019-04-07T20:31:52.403Z,16.87
2019-04-07T20:34:53.296Z,17.10
2019-04-07T20:37:55.069Z,16.63
2019-04-07T20:40:39.634Z,16.87
2019-04-07T20:43:25.414Z,16.43
2019-04-07T20:46:34.382Z,16.27
2019-04-07T20:49:42.451Z,15.47
2019-04-07T20:55:49.498Z,14.97
2019-04-07T20:59:01.498Z,14.83
2019-04-07T21:02:08.635Z,14.53
2019-04-07T21:05:14.529Z,14.40
2019-04-07T21:08:23.283Z,14.90
2019-04-07T21:11:30.255Z,14.60
2019-04-07T21:17:32.582Z,14.13
2019-04-07T21:20:39.559Z,14.60
2019-04-07T21:23:47.139Z,15.43
2019-04-07T21:26:35.983Z,16.33
2019-04-07T21:29:45.595Z,15.70
2019-04-07T21:35:29.229Z,15.30
2019-04-07T21:38:36.180Z,15.93
2019-04-07T21:41:45.196Z,16.00
2019-04-07T21:47:50.368Z,16.83
2019-04-07T21:50:58.124Z,16.73
2019-04-07T21:53:45.777Z,17.37
2019-04-07T21:56:52.724Z,16.73
2019-04-07T22:02:55.000Z,16.33
2019-04-07T22:06:02.656Z,15.97
2019-04-07T22:09:09.672Z,16.00
2019-04-07T22:11:58.074Z,16.57
2019-04-07T22:14:47.613Z,15.57
2019-04-07T22:17:37.950Z,14.53
2019-04-07T22:20:25.881Z,15.87
2019-04-07T22:23:14.560Z,16.60
2019-04-07T22:26:03.121Z,15.20
2019-04-07T22:28:50.892Z,16.90
2019-04-07T22:31:57.830Z,15.93
2019-04-07T22:34:46.175Z,14.80
2019-04-07T22:37:35.680Z,16.03
2019-04-07T22:40:45.812Z,15.30
2019-04-07T22:43:34.966Z,15.63
2019-04-07T22:46:26.872Z,14.33
2019-04-07T22:49:12.267Z,13.63
2019-04-07T22:51:44.512Z,12.77
2019-04-07T22:54:31.259Z,11.90
2019-04-07T22:57:19.781Z,12.73
2019-04-07T23:03:03.759Z,13.87
2019-04-07T23:05:51.583Z,13.47
2019-04-07T23:08:39.336Z,12.77
2019-04-07T23:11:27.851Z,12.40
2019-04-07T23:14:15.758Z,12.97
2019-04-07T23:17:03.716Z,12.27
2019-04-07T23:19:52.458Z,12.77
2019-04-07T23:22:41.004Z,11.63
2019-04-07T23:25:28.791Z,12.57
2019-04-07T23:28:16.696Z,12.57
2019-04-07T23:31:05.477Z,11.77
2019-04-07T23:33:54.391Z,12.73
2019-04-07T23:36:36.563Z,12.80
2019-04-07T23:39:18.164Z,12.63
2019-04-07T23:41:58.998Z,12.87
2019-04-07T23:44:40.058Z,12.10
2019-04-07T23:47:21.593Z,12.70
2019-04-07T23:50:02.914Z,12.83
2019-04-07T23:52:43.500Z,12.43
2019-04-07T23:55:24.216Z,12.90
2019-04-07T23:58:04.880Z,12.67
